Time;durP1;ratioP1;P1;durP2;ratioP2;P2;SDS_P1;SDS_P2;PMS_P1;PMS_P2;Temp;Humidity;BMP_temperature;BMP_pressure;BME280_temperature;BME280_humidity;BME280_pressure;Samples;Min_cycle;Max_cycle;Signal;HPM_P1;HPM_P2
2022/12/12 00:00:19;;;;;;;8.10;7.11;;;;;;;6.77;70.04;100339.80;457643;114;922504;-78
2022/12/12 00:01:32;;;;;;;13.44;7.46;;;;;;;6.78;70.04;100333.34;457579;116;922647;-78
2022/12/12 00:02:39;;;;;;;8.52;7.53;;;;;;;6.78;70.04;100334.16;457426;116;930467;-79
2022/12/12 00:03:43;;;;;;;8.12;7.32;;;;;;;6.77;70.12;100343.34;457480;116;922546;-79
2022/12/12 00:04:46;;;;;;;9.12;7.18;;;;;;;6.78;70.06;100339.58;457529;114;922595;-78
2022/12/12 00:05:54;;;;;;;9.03;7.47;;;;;;;6.80;70.09;100336.67;457598;116;930415;-78
2022/12/12 00:06:57;;;;;;;8.32;7.52;;;;;;;6.81;70.09;100344.63;457457;116;922784;-79
2022/12/12 00:08:01;;;;;;;7.97;7.17;;;;;;;6.83;70.20;100347.14;457545;116;922507;-79
2022/12/12 00:09:04;;;;;;;7.86;7.12;;;;;;;6.82;70.03;100340.88;457634;115;922570;-79
2022/12/12 00:10:09;;;;;;;11.21;7.74;;;;;;;6.83;70.02;100353.41;457515;114;923739;-79
2022/12/12 00:11:12;;;;;;;8.54;7.72;;;;;;;6.83;70.09;100355.27;457576;116;922401;-80
2022/12/12 00:12:18;;;;;;;8.29;7.58;;;;;;;6.85;70.09;100347.77;457415;116;923003;-78
2022/12/12 00:13:21;;;;;;;8.48;7.56;;;;;;;6.85;70.01;100353.19;457557;116;922948;-79
2022/12/12 00:14:24;;;;;;;8.21;7.54;;;;;;;6.86;69.99;100357.58;457587;116;930615;-78
2022/12/12 00:15:27;;;;;;;8.67;7.75;;;;;;;6.86;70.09;100347.58;457616;116;922593;-78
2022/12/12 00:16:31;;;;;;;7.97;7.27;;;;;;;6.87;70.28;100348.42;457612;115;922485;-78
2022/12/12 00:17:34;;;;;;;8.45;7.79;;;;;;;6.89;70.33;100341.75;457603;116;930416;-78
2022/12/12 00:18:38;;;;;;;8.78;7.83;;;;;;;6.91;70.26;100347.82;457632;116;922614;-79
2022/12/12 00:19:42;;;;;;;10.62;8.08;;;;;;;6.92;70.09;100341.38;457540;114;922993;-79
2022/12/12 00:20:51;;;;;;;9.61;8.68;;;;;;;6.94;70.09;100342.02;457560;116;922880;-79
2022/12/12 00:21:54;;;;;;;9.78;8.06;;;;;;;6.94;70.07;100342.02;457442;116;922563;-79
2022/12/12 00:22:57;;;;;;;11.22;8.54;;;;;;;6.95;70.07;100350.97;457647;116;922822;-78
2022/12/12 00:24:00;;;;;;;8.69;7.78;;;;;;;6.94;69.97;100342.02;457649;116;922594;-77
2022/12/12 00:25:04;;;;;;;8.66;7.80;;;;;;;6.95;69.98;100338.25;457584;114;922508;-80
2022/12/12 00:26:10;;;;;;;8.72;7.87;;;;;;;6.95;69.88;100343.67;457574;116;923010;-78
2022/12/12 00:27:14;;;;;;;9.32;8.22;;;;;;;6.95;69.79;100346.39;457129;115;930491;-80
2022/12/12 00:28:17;;;;;;;9.24;8.41;;;;;;;6.93;69.57;100342.22;457583;116;922574;-80
2022/12/12 00:29:20;;;;;;;8.61;7.69;;;;;;;6.90;69.58;100354.27;457680;116;922936;-79
2022/12/12 00:30:24;;;;;;;12.82;8.82;;;;;;;6.88;69.68;100350.09;457530;114;922542;-80
2022/12/12 00:31:28;;;;;;;9.89;8.86;;;;;;;6.88;69.90;100348.23;457638;116;922522;-78
2022/12/12 00:32:32;;;;;;;9.35;8.38;;;;;;;6.90;69.91;100345.30;457576;116;922483;-78
2022/12/12 00:33:35;;;;;;;8.96;7.91;;;;;;;6.89;69.80;100346.36;457612;116;922864;-79
2022/12/12 00:34:38;;;;;;;9.59;8.50;;;;;;;6.90;69.92;100345.30;457619;116;930654;-79
2022/12/12 00:35:41;;;;;;;9.61;8.26;;;;;;;6.92;69.90;100346.80;457615;116;922874;-79
2022/12/12 00:36:44;;;;;;;9.11;8.27;;;;;;;6.91;69.86;100342.41;457570;116;922905;-78
2022/12/12 00:37:48;;;;;;;9.27;8.21;;;;;;;6.92;69.81;100340.53;457535;116;922889;-77
2022/12/12 00:38:52;;;;;;;8.93;8.01;;;;;;;6.93;69.94;100337.63;457541;116;922477;-81
2022/12/12 00:39:55;;;;;;;9.21;8.05;;;;;;;6.95;69.83;100338.25;457313;114;923168;-80
2022/12/12 00:40:59;;;;;;;8.43;7.54;;;;;;;6.97;69.86;100335.36;457548;116;922530;-78
2022/12/12 00:42:03;;;;;;;9.11;7.99;;;;;;;6.98;69.92;100328.91;457403;116;922571;-78
2022/12/12 00:43:06;;;;;;;9.44;7.44;;;;;;;6.99;69.83;100323.30;457561;116;922564;-79
2022/12/12 00:44:10;;;;;;;9.91;8.85;;;;;;;7.00;69.78;100332.27;457565;116;922522;-80
2022/12/12 00:45:14;;;;;;;9.36;8.41;;;;;;;7.01;69.86;100323.91;457267;114;923048;-79
2022/12/12 00:46:21;;;;;;;8.37;7.71;;;;;;;7.03;69.92;100329.98;457392;115;922498;-79
2022/12/12 00:47:24;;;;;;;9.99;8.32;;;;;;;7.06;69.91;100323.31;457323;116;922896;-78
2022/12/12 00:48:29;;;;;;;9.93;8.95;;;;;;;7.09;69.94;100320.23;457533;115;922957;-79
2022/12/12 00:49:32;;;;;;;9.48;8.33;;;;;;;7.10;69.87;100320.03;457337;114;922559;-79
2022/12/12 00:50:36;;;;;;;9.20;7.93;;;;;;;7.11;69.87;100327.11;457418;116;922557;-79
2022/12/12 00:51:39;;;;;;;9.15;8.01;;;;;;;7.13;69.75;100316.91;457490;116;922590;-78
2022/12/12 00:52:42;;;;;;;8.88;7.88;;;;;;;7.15;69.73;100324.02;457515;116;922635;-78
2022/12/12 00:53:46;;;;;;;9.24;7.78;;;;;;;7.17;69.73;100316.53;457551;116;923074;-78
2022/12/12 00:54:50;;;;;;;8.02;7.22;;;;;;;7.18;69.75;100315.47;457473;116;922966;-79
2022/12/12 00:55:57;;;;;;;8.40;7.66;;;;;;;7.17;69.63;100309.20;450557;117;922671;-78
2022/12/12 00:57:00;;;;;;;8.83;6.93;;;;;;;7.17;69.55;100313.82;451087;116;922561;-78
2022/12/12 00:58:03;;;;;;;11.54;8.03;;;;;;;7.14;69.45;100306.91;457541;116;923458;-79
2022/12/12 00:59:07;;;;;;;9.19;7.65;;;;;;;7.12;69.36;100312.52;464738;114;922868;-79
2022/12/12 01:00:12;;;;;;;8.76;7.72;;;;;;;7.11;69.38;100320.88;465518;113;922674;-79
2022/12/12 01:01:19;;;;;;;10.29;7.44;;;;;;;7.09;69.43;100318.36;465464;114;923059;-78
2022/12/12 01:02:22;;;;;;;8.22;7.36;;;;;;;7.09;69.31;100322.94;465395;114;922426;-78
2022/12/12 01:03:27;;;;;;;9.69;7.20;;;;;;;7.07;69.42;100314.99;465051;113;922548;-78
2022/12/12 01:04:30;;;;;;;8.55;7.41;;;;;;;7.06;69.40;100320.61;465628;114;922550;-78
2022/12/12 01:05:34;;;;;;;8.56;7.72;;;;;;;7.05;69.35;100308.95;465556;114;922560;-79
2022/12/12 01:06:37;;;;;;;9.09;8.14;;;;;;;7.06;69.46;100312.47;465541;113;922501;-78
2022/12/12 01:07:40;;;;;;;8.68;7.72;;;;;;;7.05;69.43;100319.80;465587;114;922919;-80
2022/12/12 01:08:43;;;;;;;8.21;7.06;;;;;;;7.06;69.46;100317.89;465579;114;923122;-80
2022/12/12 01:09:46;;;;;;;7.74;6.67;;;;;;;7.05;69.37;100310.83;465583;113;922625;-78
2022/12/12 01:10:49;;;;;;;7.57;6.72;;;;;;;7.04;69.35;100315.41;465609;113;922827;-80
2022/12/12 01:11:52;;;;;;;11.05;7.83;;;;;;;7.03;69.42;100311.02;465641;114;922800;-79
2022/12/12 01:12:55;;;;;;;7.95;7.14;;;;;;;7.03;69.42;100312.88;465594;114;922567;-80
2022/12/12 01:13:59;;;;;;;8.13;7.37;;;;;;;7.03;69.37;100311.02;465594;113;922742;-79
2022/12/12 01:15:05;;;;;;;10.68;7.64;;;;;;;7.02;69.31;100314.75;465527;114;923002;-78
2022/12/12 01:16:09;;;;;;;8.31;7.43;;;;;;;7.01;69.37;100318.49;465421;114;922566;-79
2022/12/12 01:17:12;;;;;;;10.84;7.82;;;;;;;7.01;69.34;100317.66;465521;113;922567;-78
2022/12/12 01:18:16;;;;;;;8.14;7.36;;;;;;;7.00;69.31;100318.72;465613;114;922565;-78
2022/12/12 01:19:19;;;;;;;8.51;7.71;;;;;;;6.99;69.43;100320.58;465517;114;922518;-78
2022/12/12 01:20:25;;;;;;;11.86;7.87;;;;;;;6.97;69.46;100317.22;465494;114;930492;-78
2022/12/12 01:21:29;;;;;;;8.99;8.21;;;;;;;6.95;69.45;100316.57;465434;114;922965;-78
2022/12/12 01:22:32;;;;;;;8.19;6.91;;;;;;;6.94;69.49;100306.80;465504;113;922941;-79
2022/12/12 01:23:35;;;;;;;8.28;7.56;;;;;;;6.94;69.46;100314.08;465563;114;922920;-79
2022/12/12 01:24:38;;;;;;;8.92;7.42;;;;;;;6.94;69.49;100309.50;465534;113;922940;-78
2022/12/12 01:25:42;;;;;;;8.75;7.78;;;;;;;6.93;69.50;100310.53;465580;114;924567;-79
2022/12/12 01:26:45;;;;;;;7.89;6.80;;;;;;;6.93;69.46;100298.85;465500;113;922903;-77
2022/12/12 01:27:48;;;;;;;8.71;7.28;;;;;;;6.93;69.60;100298.85;465552;114;930465;-78
2022/12/12 01:28:52;;;;;;;8.11;7.25;;;;;;;6.91;69.50;100300.91;465627;114;922868;-77
2022/12/12 01:29:57;;;;;;;8.84;7.61;;;;;;;6.92;69.54;100302.59;465492;114;922948;-78
2022/12/12 01:31:00;;;;;;;8.56;7.33;;;;;;;6.90;69.66;100300.06;465446;114;923017;-78
2022/12/12 01:32:04;;;;;;;9.23;8.00;;;;;;;6.90;69.57;100300.06;465542;114;922582;-78
2022/12/12 01:33:07;;;;;;;8.74;7.92;;;;;;;6.91;69.61;100299.04;465486;114;930463;-78
2022/12/12 01:34:10;;;;;;;8.69;7.81;;;;;;;6.91;69.71;100293.62;465632;114;923115;-78
2022/12/12 01:35:14;;;;;;;9.00;8.00;;;;;;;6.92;69.66;100291.75;465534;114;922937;-78
2022/12/12 01:36:20;;;;;;;9.36;8.09;;;;;;;6.93;69.83;100294.27;465478;114;930474;-78
2022/12/12 01:37:23;;;;;;;10.53;8.09;;;;;;;6.93;69.77;100291.56;465384;114;922355;-78
2022/12/12 01:38:27;;;;;;;9.56;8.60;;;;;;;6.94;69.62;100295.11;465612;114;923284;-79
2022/12/12 01:39:30;;;;;;;9.32;8.13;;;;;;;6.93;69.67;100296.98;465596;114;922499;-77
2022/12/12 01:40:33;;;;;;;8.73;7.81;;;;;;;6.94;69.56;100290.53;465602;113;922565;-78
2022/12/12 01:41:36;;;;;;;8.50;7.61;;;;;;;6.94;69.56;100290.53;465583;114;922776;-78
2022/12/12 01:42:39;;;;;;;8.93;8.03;;;;;;;6.94;69.73;100287.82;465587;114;922882;-78
2022/12/12 01:43:42;;;;;;;8.62;7.81;;;;;;;6.93;69.64;100285.30;465605;114;922626;-78
2022/12/12 01:44:49;;;;;;;8.58;7.26;;;;;;;6.93;69.69;100288.01;465560;114;922539;-79
2022/12/12 01:46:02;;;;;;;10.27;8.67;;;;;;;6.93;69.76;100283.43;465384;114;922622;-79
2022/12/12 01:47:05;;;;;;;8.10;7.30;;;;;;;6.93;69.67;100288.01;465402;114;922457;-78
2022/12/12 01:48:08;;;;;;;9.93;8.30;;;;;;;6.92;69.68;100279.04;465506;114;923118;-79
2022/12/12 01:49:26;;;;;;;8.65;7.85;;;;;;;6.92;69.79;100279.04;465605;114;922456;-78
2022/12/12 01:50:29;;;;;;;10.36;7.19;;;;;;;6.92;69.68;100272.78;465352;114;922484;-78
2022/12/12 01:51:33;;;;;;;8.98;8.18;;;;;;;6.89;69.80;100262.34;465580;114;922479;-79
2022/12/12 01:52:45;;;;;;;10.19;8.27;;;;;;;6.90;69.71;100272.97;465492;114;923016;-78
2022/12/12 01:53:52;;;;;;;9.23;7.63;;;;;;;6.91;69.82;100262.97;465410;114;922781;-78
2022/12/12 01:54:58;;;;;;;9.33;7.61;;;;;;;6.89;69.67;100262.34;465383;114;922767;-78
2022/12/12 01:56:05;;;;;;;8.74;7.88;;;;;;;6.89;69.68;100265.86;465373;114;922578;-78
2022/12/12 01:57:12;;;;;;;7.82;7.03;;;;;;;6.89;69.68;100267.77;465422;113;923235;-78
2022/12/12 01:58:16;;;;;;;9.04;7.62;;;;;;;6.88;69.69;100269.64;464995;114;922594;-78
2022/12/12 01:59:21;;;;;;;9.48;8.26;;;;;;;6.88;69.70;100272.34;457434;116;922893;-78
2022/12/12 02:00:24;;;;;;;9.05;8.12;;;;;;;6.88;69.73;100276.92;457301;116;922526;-78
2022/12/12 02:01:28;;;;;;;9.68;7.41;;;;;;;6.88;69.75;100266.09;448111;118;922646;-79
2022/12/12 02:02:31;;;;;;;8.69;7.77;;;;;;;6.88;69.69;100275.06;448549;116;922695;-78
2022/12/12 02:03:35;;;;;;;9.94;7.94;;;;;;;6.88;69.74;100274.22;457526;116;922875;-78
2022/12/12 02:04:40;;;;;;;9.49;8.57;;;;;;;6.88;69.75;100269.64;457411;116;922884;-78
2022/12/12 02:05:52;;;;;;;9.36;8.05;;;;;;;6.88;69.78;100261.50;457251;116;930732;-78
2022/12/12 02:06:57;;;;;;;8.34;7.48;;;;;;;6.89;69.76;100268.58;457288;116;922642;-78
2022/12/12 02:08:02;;;;;;;8.43;7.59;;;;;;;6.90;69.69;100264.00;457418;116;922525;-78
2022/12/12 02:09:08;;;;;;;7.96;7.14;;;;;;;6.89;69.64;100260.45;457278;116;922570;-78
2022/12/12 02:10:12;;;;;;;8.39;7.60;;;;;;;6.88;69.63;100263.38;457270;116;922531;-78
2022/12/12 02:11:15;;;;;;;8.63;7.78;;;;;;;6.86;69.63;100263.56;457462;116;923040;-78
2022/12/12 02:12:18;;;;;;;9.34;7.64;;;;;;;6.85;69.66;100256.47;457483;116;922586;-78
2022/12/12 02:13:24;;;;;;;9.66;7.92;;;;;;;6.85;69.81;100258.34;457473;116;922526;-78
2022/12/12 02:14:49;;;;;;;9.50;7.28;;;;;;;6.84;69.75;100248.53;457304;116;922651;-79
2022/12/12 02:16:07;;;;;;;8.04;7.31;;;;;;;6.85;69.86;100252.92;457260;116;922580;-78
2022/12/12 02:17:23;;;;;;;8.23;7.35;;;;;;;6.83;69.76;100258.56;457317;116;922888;-79
2022/12/12 02:18:36;;;;;;;8.81;7.84;;;;;;;6.82;69.79;100247.91;457281;116;922876;-79
2022/12/12 02:20:02;;;;;;;9.27;7.45;;;;;;;6.81;69.75;100257.91;455999;116;922392;-79
2022/12/12 02:21:18;;;;;;;10.54;8.19;;;;;;;6.80;69.81;100260.81;443070;119;922935;-76
2022/12/12 02:22:40;;;;;;;9.80;8.18;;;;;;;6.77;69.82;100248.51;455033;116;922513;-78
2022/12/12 02:24:20;;;;;;;7.96;6.96;;;;;;;6.76;69.89;100252.25;457266;116;923075;-78
2022/12/12 02:25:45;;;;;;;9.72;7.46;;;;;;;6.76;69.95;100252.25;457227;116;922550;-79
2022/12/12 02:27:07;;;;;;;7.80;7.16;;;;;;;6.75;69.91;100245.15;457286;116;922515;-79
2022/12/12 02:28:47;;;;;;;9.62;7.88;;;;;;;6.73;69.93;100243.69;457111;116;922459;-78
2022/12/12 02:30:21;;;;;;;9.03;7.83;;;;;;;6.72;70.00;100242.85;457284;116;922447;-79
2022/12/12 02:31:28;;;;;;;9.47;7.54;;;;;;;6.70;69.97;100247.62;447473;117;922792;-79
2022/12/12 02:32:56;;;;;;;8.72;6.84;;;;;;;6.79;70.01;100242.87;477213;110;947147;-78
2022/12/12 02:34:09;;;;;;;10.51;7.67;;;;;;;6.66;69.97;100243.64;465533;114;922452;-79
2022/12/12 02:35:35;;;;;;;12.52;7.34;;;;;;;6.64;69.99;100240.28;455459;112;922636;-78
2022/12/12 02:36:57;;;;;;;8.19;7.38;;;;;;;6.62;70.09;100243.17;463142;112;922977;-78
2022/12/12 02:38:19;;;;;;;9.01;7.92;;;;;;;6.60;70.13;100244.42;471405;112;922575;-77
2022/12/12 02:39:37;;;;;;;9.74;7.08;;;;;;;6.59;70.10;100245.45;471478;112;923548;-78
2022/12/12 02:41:05;;;;;;;7.70;6.95;;;;;;;6.57;70.10;100245.64;470904;112;922607;-79
2022/12/12 02:42:17;;;;;;;11.24;7.19;;;;;;;6.56;70.14;100249.38;471371;112;922694;-79
2022/12/12 02:43:42;;;;;;;7.84;7.14;;;;;;;6.55;70.19;100245.02;471486;112;922524;-78
2022/12/12 02:45:01;;;;;;;7.94;7.17;;;;;;;6.55;70.14;100238.77;470459;112;922682;-77
2022/12/12 02:46:11;;;;;;;8.71;6.74;;;;;;;6.56;70.30;100237.73;470756;112;922467;-78
2022/12/12 02:47:24;;;;;;;7.74;6.98;;;;;;;6.65;70.37;100225.70;477222;110;947406;-77
2022/12/12 02:48:37;;;;;;;7.64;6.72;;;;;;;6.56;70.28;100237.73;465527;114;922554;-78
2022/12/12 02:49:47;;;;;;;8.76;6.86;;;;;;;6.56;70.32;100235.03;463666;114;923028;-79
2022/12/12 02:50:53;;;;;;;10.52;6.99;;;;;;;6.56;70.26;100232.31;457412;116;922923;-77
2022/12/12 02:51:57;;;;;;;10.02;7.47;;;;;;;6.55;70.26;100241.47;457394;116;922474;-77
2022/12/12 02:53:00;;;;;;;8.66;7.29;;;;;;;6.52;70.15;100233.72;457535;116;922832;-77
2022/12/12 02:54:05;;;;;;;9.95;6.62;;;;;;;6.52;70.25;100239.98;457582;116;930511;-78
2022/12/12 02:55:08;;;;;;;8.25;7.18;;;;;;;6.52;70.33;100231.86;457468;114;922855;-78
2022/12/12 02:56:47;;;;;;;8.50;7.01;;;;;;;6.53;70.36;100235.41;457495;115;922459;-79
2022/12/12 02:57:52;;;;;;;8.78;7.19;;;;;;;6.52;70.24;100231.86;457396;116;930521;-78
2022/12/12 02:58:55;;;;;;;8.04;6.79;;;;;;;6.51;70.36;100241.01;463880;113;922465;-78
2022/12/12 03:00:06;;;;;;;7.29;6.45;;;;;;;6.51;70.31;100234.75;466703;113;922562;-77
2022/12/12 03:01:21;;;;;;;8.91;6.89;;;;;;;6.52;70.33;100233.72;465569;113;930489;-78
2022/12/12 03:02:46;;;;;;;7.62;6.88;;;;;;;6.50;70.42;100231.23;466076;113;922649;-78
2022/12/12 03:08:30;;;;;;;10.38;7.33;;;;;;;6.45;70.49;100230.16;466567;113;922449;-77
2022/12/12 03:09:40;;;;;;;8.04;7.06;;;;;;;6.42;70.64;100231.37;466545;113;922926;-77
2022/12/12 03:10:50;;;;;;;7.97;6.59;;;;;;;6.42;70.67;100230.53;466465;113;923082;-78
2022/12/12 03:12:11;;;;;;;8.63;6.80;;;;;;;6.42;70.72;100244.06;439813;120;923013;-79
2022/12/12 03:13:38;;;;;;;8.75;7.28;;;;;;;6.41;70.87;100242.39;462207;113;922510;-79
2022/12/12 03:14:50;;;;;;;7.63;6.95;;;;;;;6.43;70.76;100243.04;465854;113;922817;-78
2022/12/12 03:16:17;;;;;;;7.92;6.71;;;;;;;6.42;70.75;100242.20;466602;113;922943;-78
2022/12/12 03:17:51;;;;;;;8.43;7.57;;;;;;;6.43;70.79;100246.59;466571;113;922861;-79
2022/12/12 03:19:04;;;;;;;8.57;7.09;;;;;;;6.46;70.93;100237.22;451730;117;923147;-77
2022/12/12 03:20:32;;;;;;;8.37;7.30;;;;;;;6.47;70.77;100236.19;451720;117;922780;-80
2022/12/12 03:21:41;;;;;;;8.33;6.82;;;;;;;6.46;70.76;100229.09;451708;117;922652;-78
2022/12/12 03:23:05;;;;;;;9.29;6.79;;;;;;;6.47;70.77;100228.06;451729;117;922701;-79
2022/12/12 03:24:21;;;;;;;9.09;6.72;;;;;;;6.46;70.80;100227.22;451689;117;923233;-79
2022/12/12 03:25:28;;;;;;;7.69;6.99;;;;;;;6.47;70.79;100225.36;466577;113;922494;-78
2022/12/12 03:26:37;;;;;;;8.79;7.53;;;;;;;6.47;70.66;100217.23;466482;113;922574;-78
2022/12/12 03:27:47;;;;;;;10.05;7.62;;;;;;;6.45;70.70;100214.71;461739;113;923052;-78
2022/12/12 03:28:54;;;;;;;8.67;7.80;;;;;;;6.46;70.51;100212.84;447351;118;923242;-79
2022/12/12 03:30:00;;;;;;;8.40;7.57;;;;;;;6.45;70.45;100219.32;460033;113;922575;-78
2022/12/12 03:31:07;;;;;;;8.60;7.63;;;;;;;6.43;70.50;100216.80;466592;113;922459;-78
2022/12/12 03:32:14;;;;;;;7.76;7.01;;;;;;;6.42;70.45;100225.11;466580;113;922648;-78
2022/12/12 03:33:27;;;;;;;8.86;7.84;;;;;;;6.42;70.51;100225.11;466389;113;922953;-79
2022/12/12 03:34:34;;;;;;;8.36;7.54;;;;;;;6.43;70.59;100230.34;458099;113;922471;-79
2022/12/12 03:35:40;;;;;;;8.73;7.92;;;;;;;6.46;70.50;100231.80;466585;113;922846;-77
2022/12/12 03:36:47;;;;;;;11.97;7.72;;;;;;;6.45;70.53;100230.16;466641;113;922462;-80
2022/12/12 03:38:09;;;;;;;9.13;7.80;;;;;;;6.45;70.42;100227.44;466619;113;922525;-78
2022/12/12 03:39:28;;;;;;;7.85;6.88;;;;;;;6.45;70.51;100232.86;466478;113;922426;-79
2022/12/12 03:40:37;;;;;;;10.20;7.34;;;;;;;6.44;70.43;100236.59;466444;113;922854;-78
2022/12/12 03:41:44;;;;;;;8.77;7.83;;;;;;;6.43;70.63;100233.05;466490;113;922505;-77
2022/12/12 03:42:51;;;;;;;8.51;7.71;;;;;;;6.44;70.68;100232.02;466650;113;922545;-78
2022/12/12 03:44:06;;;;;;;8.52;7.57;;;;;;;6.45;70.59;100230.95;466373;113;922508;-77
2022/12/12 03:45:19;;;;;;;7.36;6.59;;;;;;;6.47;70.63;100225.36;466399;113;922463;-79
2022/12/12 03:46:29;;;;;;;7.56;6.83;;;;;;;6.47;70.55;100220.78;466369;113;922522;-78
2022/12/12 03:47:38;;;;;;;8.22;7.23;;;;;;;6.48;70.65;100219.75;464162;113;922503;-78
2022/12/12 03:48:51;;;;;;;8.77;7.61;;;;;;;6.50;70.66;100216.85;463805;114;922973;-78
2022/12/12 03:50:13;;;;;;;8.99;8.14;;;;;;;6.51;70.49;100223.92;463704;114;922429;-79
2022/12/12 03:51:20;;;;;;;8.60;7.61;;;;;;;6.51;70.47;100223.92;463670;114;922506;-79
2022/12/12 03:52:37;;;;;;;8.96;7.99;;;;;;;6.52;70.48;100228.30;461763;114;922514;-78
2022/12/12 03:53:43;;;;;;;10.00;8.13;;;;;;;6.52;70.45;100225.59;463788;114;922502;-79
2022/12/12 03:54:53;;;;;;;8.78;7.83;;;;;;;6.52;70.49;100231.02;463777;114;922557;-79
2022/12/12 03:56:03;;;;;;;9.24;7.84;;;;;;;6.51;70.42;100229.33;463509;114;922324;-79
2022/12/12 03:57:09;;;;;;;9.74;7.83;;;;;;;6.50;70.27;100236.66;463772;114;922728;-79
2022/12/12 03:58:17;;;;;;;9.26;8.02;;;;;;;6.49;70.33;100234.13;462809;114;922448;-77
2022/12/12 03:59:32;;;;;;;14.43;8.36;;;;;;;6.49;70.31;100232.27;447724;118;922985;-78
2022/12/12 04:00:37;;;;;;;8.25;7.29;;;;;;;6.51;70.39;100232.05;447851;118;922999;-79
2022/12/12 04:01:47;;;;;;;8.59;7.82;;;;;;;6.51;70.52;100230.17;447865;118;922559;-79
2022/12/12 04:02:59;;;;;;;11.87;8.06;;;;;;;6.53;70.38;100228.13;447866;118;922570;-78
2022/12/12 04:04:06;;;;;;;11.30;7.87;;;;;;;6.54;70.23;100228.95;447896;118;922868;-78
2022/12/12 04:05:19;;;;;;;8.58;7.72;;;;;;;6.54;70.22;100235.22;447739;116;922990;-78
2022/12/12 04:06:34;;;;;;;8.43;7.57;;;;;;;6.55;70.21;100228.77;447927;118;923031;-79
2022/12/12 04:07:41;;;;;;;8.04;7.04;;;;;;;6.57;70.25;100232.09;447838;118;923025;-79
2022/12/12 04:12:57;;;;;;;9.27;7.80;;;;;;;6.57;70.10;100236.67;447884;118;923042;-79
2022/12/12 04:12:57;;;;;;;8.97;8.11;;;;;;;6.57;70.05;100223.13;447809;118;923000;-79
2022/12/12 04:14:19;;;;;;;9.72;8.41;;;;;;;6.56;69.94;100226.91;447851;118;922683;-79
2022/12/12 04:15:50;;;;;;;8.37;7.45;;;;;;;6.57;70.09;100228.55;441396;118;922873;-78
2022/12/12 04:17:04;;;;;;;9.04;7.58;;;;;;;6.68;70.28;100220.72;477259;110;946864;-79
2022/12/12 04:18:20;;;;;;;13.79;8.46;;;;;;;6.58;70.18;100214.81;465545;114;922560;-78
2022/12/12 04:24:05;;;;;;;8.88;7.38;;;;;;;6.58;70.13;100222.11;458726;113;921924;-78
2022/12/12 04:27:19;;;;;;;11.84;8.08;;;;;;;6.58;70.03;100236.48;490541;107;922494;-78
2022/12/12 04:28:23;;;;;;;8.61;7.87;;;;;;;6.55;70.12;100226.06;490987;107;922659;-79
2022/12/12 04:29:42;;;;;;;9.64;7.58;;;;;;;6.55;69.97;100236.05;492941;107;921972;-79
2022/12/12 04:30:45;;;;;;;11.19;8.20;;;;;;;6.53;69.96;100229.98;494469;106;921974;-79
2022/12/12 04:32:04;;;;;;;10.11;8.29;;;;;;;6.53;69.97;100227.28;493827;107;922178;-79
2022/12/12 04:33:11;;;;;;;9.02;8.13;;;;;;;6.52;69.89;100222.89;492028;107;922604;-78
2022/12/12 04:34:23;;;;;;;11.38;8.66;;;;;;;6.53;69.88;100219.16;496558;107;922694;-79
2022/12/12 04:35:32;;;;;;;9.81;7.76;;;;;;;6.51;69.83;100218.50;491903;106;922188;-79
2022/12/12 04:36:37;;;;;;;9.24;8.34;;;;;;;6.50;69.84;100223.11;488888;107;922378;-78
2022/12/12 04:37:58;;;;;;;9.13;8.24;;;;;;;6.52;69.80;100222.89;488836;108;922729;-78
2022/12/12 04:39:04;;;;;;;9.75;7.85;;;;;;;6.52;69.80;100222.89;488541;108;922114;-79
2022/12/12 04:40:11;;;;;;;14.97;8.96;;;;;;;6.51;69.93;100224.76;488580;108;922033;-78
2022/12/12 04:41:16;;;;;;;11.37;8.59;;;;;;;6.53;69.91;100224.57;489824;107;922230;-78
2022/12/12 04:42:23;;;;;;;12.39;7.93;;;;;;;6.52;69.87;100218.31;489820;107;921903;-78
2022/12/12 04:43:30;;;;;;;8.78;7.51;;;;;;;6.53;69.82;100217.28;495415;107;922229;-78
2022/12/12 04:44:36;;;;;;;9.09;7.60;;;;;;;6.55;69.87;100227.93;489139;107;922514;-78
2022/12/12 04:45:45;;;;;;;8.70;7.71;;;;;;;6.57;69.86;100223.13;491833;107;922192;-78
2022/12/12 04:46:52;;;;;;;8.78;7.96;;;;;;;6.58;69.72;100231.07;487296;107;922409;-78
2022/12/12 04:47:57;;;;;;;8.03;7.22;;;;;;;6.58;69.72;100217.53;487360;108;922531;-77
2022/12/12 04:49:12;;;;;;;11.97;7.66;;;;;;;6.59;69.64;100218.37;490365;107;922554;-78
2022/12/12 04:50:17;;;;;;;8.37;7.53;;;;;;;6.58;69.56;100217.53;488051;107;924011;-79
2022/12/12 04:51:27;;;;;;;8.68;7.73;;;;;;;6.57;69.52;100217.72;489367;107;922618;-80
2022/12/12 04:52:33;;;;;;;9.27;7.89;;;;;;;6.56;69.62;100216.06;488255;108;922911;-79
2022/12/12 04:53:39;;;;;;;9.23;8.09;;;;;;;6.56;69.59;100213.36;493645;107;922961;-78
2022/12/12 04:55:01;;;;;;;11.12;8.10;;;;;;;6.55;69.65;100211.68;487990;107;922572;-78
2022/12/12 04:56:07;;;;;;;8.75;7.97;;;;;;;6.53;69.56;100211.87;493473;107;922480;-79
2022/12/12 04:57:14;;;;;;;11.68;7.83;;;;;;;6.53;69.55;100211.87;490343;107;922666;-78
2022/12/12 04:58:17;;;;;;;11.25;8.22;;;;;;;6.52;69.65;100215.61;491556;107;922484;-77
2022/12/12 04:59:21;;;;;;;9.10;7.74;;;;;;;6.52;69.56;100214.77;486403;108;922444;-78
2022/12/12 05:00:27;;;;;;;9.59;7.29;;;;;;;6.52;69.57;100212.90;485071;109;923651;-78
2022/12/12 05:01:45;;;;;;;8.81;7.89;;;;;;;6.51;69.60;100216.63;485929;108;923979;-79
2022/12/12 05:03:11;;;;;;;12.74;8.42;;;;;;;6.54;69.56;100210.00;485146;106;923115;-80
2022/12/12 05:04:18;;;;;;;10.07;7.75;;;;;;;6.53;69.50;100206.45;485535;108;922958;-78
2022/12/12 05:05:45;;;;;;;8.19;6.61;;;;;;;6.53;69.68;100205.61;485052;109;922478;-79
2022/12/12 05:06:52;;;;;;;8.49;7.31;;;;;;;6.54;69.75;100207.29;485313;109;922894;-79
2022/12/12 05:07:59;;;;;;;8.87;7.51;;;;;;;6.55;69.67;100203.55;486524;108;922570;-79
2022/12/12 05:09:02;;;;;;;8.14;7.37;;;;;;;6.55;69.65;100198.14;484851;109;922408;-78
2022/12/12 05:10:14;;;;;;;9.59;7.87;;;;;;;6.55;69.59;100200.84;486171;108;922429;-78
2022/12/12 05:11:20;;;;;;;8.46;7.68;;;;;;;6.55;69.62;100200.84;486165;108;930431;-78
2022/12/12 05:12:23;;;;;;;9.09;7.18;;;;;;;6.56;69.76;100206.04;485365;109;922689;-78
2022/12/12 05:13:30;;;;;;;11.76;8.43;;;;;;;6.57;69.66;100213.14;485237;109;922469;-78
2022/12/12 05:14:33;;;;;;;8.04;7.15;;;;;;;6.58;69.68;100203.14;486478;108;922601;-78
2022/12/12 05:15:36;;;;;;;9.58;7.43;;;;;;;6.57;69.56;100212.30;486053;108;922916;-79
2022/12/12 05:16:44;;;;;;;8.03;6.91;;;;;;;6.58;69.69;100214.81;484845;109;923394;-79
2022/12/12 05:17:54;;;;;;;8.55;7.02;;;;;;;6.59;69.67;100212.95;485817;109;922118;-79
2022/12/12 05:19:01;;;;;;;8.66;7.14;;;;;;;6.60;69.66;100212.77;486710;108;922298;-78
2022/12/12 05:20:04;;;;;;;10.63;7.94;;;;;;;6.61;69.69;100214.44;485222;109;922530;-78
2022/12/12 05:21:07;;;;;;;11.08;7.42;;;;;;;6.62;69.64;100213.37;485647;107;922840;-78
2022/12/12 05:22:11;;;;;;;10.81;8.09;;;;;;;6.64;69.58;100210.48;485978;108;922675;-78
2022/12/12 05:23:14;;;;;;;9.39;8.10;;;;;;;6.64;69.51;100205.91;486362;109;922536;-78
2022/12/12 05:24:17;;;;;;;10.46;7.79;;;;;;;6.65;69.51;100212.16;485799;109;922510;-78
2022/12/12 05:25:20;;;;;;;9.31;7.26;;;;;;;6.66;69.62;100200.30;486491;108;923023;-77
2022/12/12 05:26:26;;;;;;;13.24;7.35;;;;;;;6.66;69.49;100208.42;485426;109;922568;-78
2022/12/12 05:27:30;;;;;;;9.03;7.94;;;;;;;6.66;69.51;100205.72;484995;109;923030;-80
2022/12/12 05:28:33;;;;;;;8.83;7.62;;;;;;;6.67;69.61;100208.20;485172;109;923134;-78
2022/12/12 05:29:36;;;;;;;10.24;8.39;;;;;;;6.68;69.42;100211.75;486952;108;922478;-78
2022/12/12 05:30:39;;;;;;;9.63;7.54;;;;;;;6.66;69.39;100217.39;486380;106;922905;-77
2022/12/12 05:31:43;;;;;;;10.28;7.69;;;;;;;6.67;69.36;100213.62;485044;107;922465;-79
2022/12/12 05:32:46;;;;;;;8.40;7.27;;;;;;;6.67;69.45;100212.81;485242;109;930461;-78